Metar Aviation Weather Data KPBI Palm Beach International

82°F Temp
73°F Dewpoint
74% Humidity
Temperature
8 MPH
13 KM/H
7 KTS
120°
East South
East

Wind Speed
Mostly Scattered
Clouds
Pressure 1017.6 (hPa) - 30.05 (in)
Visibility 10.0 (mi) - 16.1 (km)

Current Conditions
KPBI
Palm Beach International
Metar :KPBI 142353Z 12007KT 10SM SCT030 SCT200 SCT250 28/23 A3005 RMK AO2 SLP176 T02830233 10294 20278 53004 $
Tue 14th August 19:53 pm

Palm Beach International
  Metar Aviation API Data Provided by https://www.checkwx.com/ PHP scripts by weather34.com ©2018